KCFV - Coffeyville, Kansas, USA
Distance from station: ENE 93mi, 150km
Updated: Fri, 10-Apr-2020 4:52am PDT
Clear
Clear
 Wind from N
Wind: N 3 mph , 6 km/h
Temperature: 34°F , 1°C
Dew Point: 27°F , -3°C
Humidity: 75%
Barometer: 30.23 inHg , 1023.7 hPa
Clouds: Clear
Visibility: 10 miles , 16 km
2020/04/10 11:52 KCFV 101152Z AUTO 36003KT 10SM CLR 01/M03 A3023 RMK AO2 SLP237 T00111033 10078 20011 53005
KIDP - Independence, Kansas, USA
Distance from station: NE 86mi, 138km
Updated: Fri, 10-Apr-2020 4:55am PDT
Clear
Clear
 Wind from NNE
Wind: NNE 6 mph , 9 km/h
Temperature: 32°F , 0°C
Wind Chill: 26°F , -3°C
Dew Point: 25°F , -4°C
Humidity: 75%
Barometer: 30.23 inHg , 1023.7 hPa
Clouds: Clear
Visibility: 10 miles , 16 km
2020/04/10 11:55 KIDP 101155Z AUTO 02005KT 10SM CLR 00/M04 A3023 RMK AO2 T10011038 10076 21002
 
KIAB - Mcconnell Afb, Kansas, USA
Distance from station: N 84mi, 135km
Updated: Fri, 10-Apr-2020 4:56am PDT
Clear
Clear
 Wind from NE
Wind: NE 3 mph , 6 km/h
Temperature: 32°F , 0°C
Dew Point: 18°F , -8°C
Humidity: 55%
Barometer: 30.21 inHg , 1023 hPa
Clouds: Clear
Visibility: 10 miles , 16 km
2020/04/10 11:56 KIAB 101156Z AUTO 05003KT 10SM CLR 00/M08 A3021 RMK AO2 SLP237 T00011081 10067 21006 58001 $
KICT - Wichita, Kansas, USA
Distance from station: NNW 88mi, 142km
Updated: Fri, 10-Apr-2020 4:53am PDT
Clear
Clear
 Wind from NE
Wind: NE 5 mph , 7 km/h
Temperature: 34°F , 1°C
Wind Chill: 29°F , -2°C
Dew Point: 18°F , -8°C
Humidity: 51%
Barometer: 30.21 inHg , 1023 hPa
Clouds: Clear
Visibility: 10 miles , 16 km
2020/04/10 11:53 KICT 101153Z 05004KT 10SM CLR 01/M08 A3021 RMK AO2 SLP231 T00111078 10072 20011 55003
 
KAAO - Wichita/Jabara, Kansas, USA
Distance from station: N 93mi, 149km
Updated: Fri, 10-Apr-2020 4:54am PDT
Clear
Clear
 Wind from calm
Wind: Calm
Temperature: 30°F , -1°C
Dew Point: 19°F , -7°C
Humidity: 64%
Barometer: 30.21 inHg , 1023 hPa
Clouds: Clear
Visibility: 10 miles , 16 km
2020/04/10 11:54 KAAO 101154Z AUTO 00000KT 10SM CLR M01/M07 A3021 RMK AO2 SLP235 T10111072 10050 21011 58000
KWLD - Winfield/Arkansa, Kansas, USA
Distance from station: N 52mi, 84km
Updated: Fri, 10-Apr-2020 4:54am PDT
Clear
Clear
 Wind from NE
Wind: NE 6 mph , 9 km/h
Temperature: 34°F , 1°C
Wind Chill: 29°F , -2°C
Dew Point: 21°F , -6°C
Humidity: 60%
Barometer: 30.22 inHg , 1023.4 hPa
Clouds: Clear
Visibility: 10 miles , 16 km
2020/04/10 11:54 KWLD 101154Z AUTO 05005KT 10SM CLR 01/M06 A3022 RMK AO2 SLP237 T00111056 10083 20011 53001
 
KAVK - Alva, Oklahoma, USA
Distance from station: WNW 94mi, 152km
Updated: Fri, 10-Apr-2020 5:15am PDT
Clear
Clear
 Wind from NNE
Wind: NNE 3 mph , 6 km/h
Temperature: 34°F , 1°C
Dew Point: 25°F , -4°C
Humidity: 70%
Barometer: 30.22 inHg , 1023.4 hPa
Clouds: Clear
Visibility: 10 miles , 16 km
2020/04/10 12:15 KAVK 101215Z AUTO 02003KT 10SM CLR 01/M04 A3022 RMK AO2 PWINO TSNO
KBVO - Bartlesville, Oklahoma, USA
Distance from station: ENE 61mi, 98km
Updated: Fri, 10-Apr-2020 4:53am PDT
Clear
Clear
 Wind from NNE
Wind: NNE 3 mph , 6 km/h
Temperature: 34°F , 1°C
Dew Point: 27°F , -3°C
Humidity: 75%
Barometer: 30.23 inHg , 1023.7 hPa
Clouds: Clear
Visibility: 10 miles , 16 km
2020/04/10 11:53 KBVO 101153Z AUTO 02003KT 10SM CLR 01/M03 A3023 RMK AO2 SLP236 T00111028 10089 20011 51004
 
KBKN - Blackwell, Oklahoma, USA
Distance from station: NW 29mi, 47km
Updated: Fri, 10-Apr-2020 5:15am PDT
Clear
Clear
 Wind from NE
Wind: NE 5 mph , 7 km/h
Temperature: 34°F , 1°C
Wind Chill: 29°F , -2°C
Dew Point: 27°F , -3°C
Humidity: 75%
Barometer: 30.22 inHg , 1023.4 hPa
Clouds: Clear
Visibility: 10 miles , 16 km
2020/04/10 12:15 KBKN 101215Z AUTO 05004KT 10SM CLR 01/M03 A3022 RMK AO2
KGCM - Claremore, Oklahoma, USA
Distance from station: E 86mi, 138km
Updated: Fri, 10-Apr-2020 5:15am PDT
Clear
Clear
 Wind from NNE
Wind: NNE 5 mph , 7 km/h
Temperature: 36°F , 2°C
Wind Chill: 32°F , 0°C
Dew Point: 19°F , -7°C
Humidity: 52%
Barometer: 30.23 inHg , 1023.7 hPa
Clouds: Clear
Visibility: 10 miles , 16 km
2020/04/10 12:15 KGCM 101215Z AUTO 03004KT 10SM CLR 02/M07 A3023 RMK AO2
 
KCQB - Chandler, Oklahoma, USA
Distance from station: SSE 50mi, 80km
Updated: Fri, 10-Apr-2020 4:55am PDT
Clear
Clear
 Wind from NNE
Wind: NNE 6 mph , 9 km/h
Temperature: 39°F , 4°C
Wind Chill: 35°F , 2°C
Dew Point: 25°F , -4°C
Humidity: 56%
Barometer: 30.19 inHg , 1022.4 hPa
Clouds: Clear
Visibility: 10 miles , 16 km
2020/04/10 11:55 KCQB 101155Z AUTO 03005KT 10SM CLR 04/M04 A3019 RMK AO2 T00421042 10092 20041
KCUH - Cushing, Oklahoma, USA
Distance from station: SSE 35mi, 57km
Updated: Fri, 10-Apr-2020 4:55am PDT
Clear
Clear
 Wind from calm
Wind: Calm
Temperature: 39°F , 4°C
Dew Point: 27°F , -3°C
Humidity: 61%
Barometer: 30.20 inHg , 1022.7 hPa
Clouds: Clear
Visibility: 10 miles , 16 km
2020/04/10 11:55 KCUH 101155Z AUTO 00000KT 10SM CLR 04/M03 A3020 RMK AO2 T00401032 10102 20040
 
KRQO - El Reno Muni, Oklahoma, USA
Distance from station: SW 85mi, 137km
Updated: Fri, 10-Apr-2020 4:50am PDT
Clear
Clear
 Wind from NNE
Wind: NNE 5 mph , 7 km/h
Temperature: 37°F , 3°C
Wind Chill: 33°F , 1°C
Dew Point: 30°F , -1°C
Humidity: 75%
Barometer: 30.19 inHg , 1022.4 hPa
Clouds: Clear
Visibility: 10 miles , 16 km
2020/04/10 11:50 KRQO 101150Z AUTO 02004KT 10SM CLR 03/M01 A3019 RMK AO2 TSNO T00291008 10093 20022
KEND - Enid/Vance Afb, Oklahoma, USA
Distance from station: W 50mi, 81km
Updated: Fri, 10-Apr-2020 4:56am PDT
Clear
Clear
 Wind from E
Wind: E 8 mph , 13 km/h
Temperature: 36°F , 2°C
Wind Chill: 30°F , -1°C
Dew Point: 28°F , -2°C
Humidity: 75%
Barometer: 30.18 inHg , 1022 hPa
Clouds: Clear
Visibility: 10 miles , 16 km
2020/04/10 11:56 KEND 101156Z AUTO 08007KT 10SM CLR 02/M02 A3018 RMK AO2 SLP224 T00181025 10097 20016 55002 $
 
KWDG - Enid/Woodring, Oklahoma, USA
Distance from station: W 42mi, 67km
Updated: Fri, 10-Apr-2020 4:46am PDT
Clear
Clear
 Wind from N
Wind: N 3 mph , 6 km/h
Temperature: 34°F , 1°C
Dew Point: 28°F , -2°C
Humidity: 81%
Barometer: 30.18 inHg , 1022 hPa
Clouds: Clear
Visibility: 10 miles , 16 km
2020/04/10 11:46 KWDG 101146Z 35003KT 10SM SKC 01/M02 A3018
KGOK - Guthrie, Oklahoma, USA
Distance from station: SSW 44mi, 71km
Updated: Fri, 10-Apr-2020 4:53am PDT
Clear
Clear
 Wind from NE
Wind: NE 7 mph , 11 km/h
Temperature: 39°F , 4°C
Wind Chill: 34°F , 1°C
Dew Point: 27°F , -3°C
Humidity: 61%
Barometer: 30.18 inHg , 1022 hPa
Clouds: Clear
Visibility: 10 miles , 16 km
2020/04/10 11:53 KGOK 101153Z AUTO 05006KT 10SM CLR 04/M03 A3018 RMK AO2 SLP220 T00391033 10089 20039 50001
 
KOUN - Norman/Westheime, Oklahoma, USA
Distance from station: SSW 84mi, 136km
Updated: Fri, 10-Apr-2020 4:55am PDT
Clear
Clear
 Wind from NE
Wind: NE 9 mph , 15 km/h
Temperature: 41°F , 5°C
Wind Chill: 35°F , 2°C
Dew Point: 27°F , -3°C
Humidity: 57%
Barometer: 30.15 inHg , 1021 hPa
Clouds: Clear
Visibility: 10 miles , 16 km
2020/04/10 11:55 KOUN 101155Z AUTO 05008KT 10SM CLR 05/M03 A3015 RMK AO2 PWINO T00531034 10095 20052
KOKC - Oklahoma City, Oklahoma, USA
Distance from station: SSW 78mi, 126km
Updated: Fri, 10-Apr-2020 4:52am PDT
Few Clouds
Few Clouds
 Wind from ENE
Wind: ENE 8 mph , 13 km/h
Temperature: 43°F , 6°C
Wind Chill: 38°F , 3°C
Dew Point: 28°F , -2°C
Humidity: 57%
Barometer: 30.16 inHg , 1021.3 hPa
Clouds: Few Clouds
Visibility: 10 miles , 16 km
Cloud details: Few Clouds 25000 ft
2020/04/10 11:52 KOKC 101152Z 06007KT 10SM FEW250 06/M02 A3016 RMK AO2 SLP211 T00561022 10117 20056 50003
 
KPWA - Okla City/Wiley, Oklahoma, USA
Distance from station: SSW 70mi, 113km
Updated: Fri, 10-Apr-2020 4:53am PDT
Clear
Clear
 Wind from ENE
Wind: ENE 8 mph , 13 km/h
Temperature: 45°F , 7°C
Wind Chill: 41°F , 5°C
Dew Point: 27°F , -3°C
Humidity: 49%
Barometer: 30.17 inHg , 1021.7 hPa
Clouds: Clear
Visibility: 10 miles , 16 km
2020/04/10 11:53 KPWA 101153Z 07007KT 10SM CLR 07/M03 A3017 RMK AO2 SLP214 T00671028 10106 20067 50001
KRCE - Okla City/Page, Oklahoma, USA
Distance from station: SW 78mi, 126km
Updated: Fri, 10-Apr-2020 5:15am PDT

 Wind from ENE
Wind: ENE 7 mph , 11 km/h
Temperature: 39°F , 4°C
Wind Chill: 34°F , 1°C
Dew Point: 28°F , -2°C
Humidity: 65%
Barometer: 30.17 inHg , 1021.7 hPa
Visibility: 10 miles , 16 km
2020/04/10 12:15 KRCE 101215Z AUTO 06006KT 10SM 04/M02 A3017 RMK AO2
 
KOKM - Okmulgee, Oklahoma, USA
Distance from station: SE 79mi, 127km
Updated: Fri, 10-Apr-2020 4:55am PDT
Clear
Clear
 Wind from N
Wind: N 7 mph , 11 km/h
Temperature: 39°F , 4°C
Wind Chill: 34°F , 1°C
Dew Point: 30°F , -1°C
Humidity: 70%
Barometer: 30.20 inHg , 1022.7 hPa
Clouds: Clear
Visibility: 10 miles , 16 km
2020/04/10 11:55 KOKM 101155Z AUTO 01006KT 10SM CLR 04/M01 A3020 RMK AO2 T00351010 10098 20035
KPNC - Ponca City, Oklahoma, USA
Distance from station: N 22mi, 36km
Updated: Fri, 10-Apr-2020 4:53am PDT
Clear
Clear
 Wind from NE
Wind: NE 6 mph , 9 km/h
Temperature: 34°F , 1°C
Wind Chill: 29°F , -2°C
Dew Point: 25°F , -4°C
Humidity: 70%
Barometer: 30.21 inHg , 1023 hPa
Clouds: Clear
Visibility: 10 miles , 16 km
2020/04/10 11:53 KPNC 101153Z AUTO 04005KT 10SM CLR 01/M04 A3021 RMK AO2 SLP229 60000 T00111044 10089 20011 51003
 
KSNL - Shawnee, Oklahoma, USA
Distance from station: S 74mi, 119km
Updated: Fri, 10-Apr-2020 4:55am PDT
Clear
Clear
 Wind from NNE
Wind: NNE 6 mph , 9 km/h
Temperature: 39°F , 4°C
Wind Chill: 35°F , 2°C
Dew Point: 27°F , -3°C
Humidity: 61%
Barometer: 30.18 inHg , 1022 hPa
Clouds: Clear
Visibility: 10 miles , 16 km
2020/04/10 11:55 KSNL 101155Z AUTO 03005KT 10SM CLR 04/M03 A3018 RMK AO2 T00421026 10092 20042
KSWO - Stillwater, Oklahoma, USA
Distance from station: S 17mi, 28km
Updated: Fri, 10-Apr-2020 4:53am PDT
Clear
Clear
 Wind from NNE
Wind: NNE 6 mph , 9 km/h
Temperature: 37°F , 3°C
Wind Chill: 32°F , 0°C
Dew Point: 28°F , -2°C
Humidity: 70%
Barometer: 30.20 inHg , 1022.7 hPa
Clouds: Clear
Visibility: 10 miles , 16 km
2020/04/10 11:53 KSWO 101153Z AUTO 03005KT 10SM CLR 03/M02 A3020 RMK AO2 SLP224 T00281022 10100 20028 53003
 
KTIK - Tinker Afb, Oklahoma, USA
Distance from station: SSW 72mi, 115km
Updated: Fri, 10-Apr-2020 4:56am PDT
Clear
Clear
 Wind from ENE
Wind: ENE 9 mph , 15 km/h
Temperature: 41°F , 5°C
Wind Chill: 35°F , 2°C
Dew Point: 25°F , -4°C
Humidity: 53%
Barometer: 30.16 inHg , 1021.3 hPa
Clouds: Clear
Visibility: 10 miles , 16 km
2020/04/10 11:56 KTIK 101156Z AUTO 06008KT 10SM CLR 05/M04 A3016 RMK AO2 SLP220 T00501040 10114 20050 50004
KTUL - Tulsa, Oklahoma, USA
Distance from station: ESE 65mi, 105km
Updated: Fri, 10-Apr-2020 4:53am PDT
Clear
Clear
 Wind from NE
Wind: NE 5 mph , 7 km/h
Temperature: 41°F , 5°C
Wind Chill: 38°F , 3°C
Dew Point: 25°F , -4°C
Humidity: 53%
Barometer: 30.21 inHg , 1023 hPa
Clouds: Clear
Visibility: 10 miles , 16 km
2020/04/10 11:53 KTUL 101153Z 05004KT 10SM CLR 05/M04 A3021 RMK AO2 SLP229 T00501044 10117 20050 52006

Metar display script from Saratoga-Weather.org